Time;durP1;ratioP1;P1;durP2;ratioP2;P2;SDS_P1;SDS_P2;PMS_P1;PMS_P2;Temp;Humidity;BMP_temperature;BMP_pressure;BME280_temperature;BME280_humidity;BME280_pressure;Samples;Min_cycle;Max_cycle;Signal;HPM_P1;HPM_P2
2021/09/28 00:00:13;;;;;;;3.22;0.50;;;16.40;99.90;;;;;;5054606;28;20033;-74
2021/09/28 00:02:38;;;;;;;1.27;0.43;;;16.40;99.90;;;;;;5054532;28;20029;-73
2021/09/28 00:05:05;;;;;;;1.58;0.50;;;16.30;99.90;;;;;;5054043;28;20032;-73
2021/09/28 00:07:30;;;;;;;0.88;0.60;;;16.30;99.90;;;;;;5054282;28;20423;-74
2021/09/28 00:09:56;;;;;;;1.23;0.60;;;16.20;99.90;;;;;;5054226;28;20021;-73
2021/09/28 00:12:22;;;;;;;1.67;0.60;;;16.20;99.90;;;;;;5052832;28;20025;-73
2021/09/28 00:14:47;;;;;;;0.40;0.40;;;16.10;99.90;;;;;;5054120;28;20021;-73
2021/09/28 00:17:13;;;;;;;0.88;0.40;;;15.90;99.90;;;;;;5054063;28;20388;-73
2021/09/28 00:19:40;;;;;;;2.30;0.50;;;15.90;99.90;;;;;;5053781;28;20021;-74
2021/09/28 00:22:06;;;;;;;0.65;0.50;;;15.70;99.90;;;;;;5053895;28;20056;-73
2021/09/28 00:24:33;;;;;;;1.05;0.40;;;15.50;1.00;;;;;;5053788;28;20033;-73
2021/09/28 00:26:59;;;;;;;2.05;0.50;;;15.30;1.00;;;;;;5052557;28;20111;-73
2021/09/28 00:29:25;;;;;;;0.95;0.45;;;14.80;1.00;;;;;;5052198;28;20028;-73
2021/09/28 00:31:51;;;;;;;1.10;0.50;;;14.70;1.00;;;;;;5053937;28;20362;-73
2021/09/28 00:34:16;;;;;;;1.60;0.50;;;14.60;1.00;;;;;;5060722;28;20480;-72
2021/09/28 00:36:42;;;;;;;2.65;0.50;;;14.60;1.00;;;;;;5069790;28;20033;-73
2021/09/28 00:39:07;;;;;;;1.98;0.80;;;14.50;1.00;;;;;;5066935;28;20021;-73
2021/09/28 00:41:33;;;;;;;4.10;0.57;;;14.40;1.00;;;;;;5066216;28;20021;-73
2021/09/28 00:43:58;;;;;;;1.23;0.40;;;14.60;1.00;;;;;;5055538;28;20032;-73
2021/09/28 00:46:25;;;;;;;2.28;0.60;;;14.60;1.00;;;;;;5055396;28;20086;-73
2021/09/28 00:48:51;;;;;;;1.73;0.63;;;14.50;99.90;;;;;;5054471;28;20025;-72
2021/09/28 00:51:18;;;;;;;2.65;1.38;;;14.50;99.90;;;;;;5053826;28;20507;-73
2021/09/28 00:53:45;;;;;;;1.30;0.52;;;14.40;1.00;;;;;;5054393;28;20033;-73
2021/09/28 00:56:14;;;;;;;1.67;1.15;;;14.40;99.90;;;;;;5054337;28;20017;-73
2021/09/28 00:58:40;;;;;;;1.08;0.60;;;14.40;1.00;;;;;;5053574;28;20025;-73
2021/09/28 01:01:07;;;;;;;1.40;0.63;;;14.30;1.00;;;;;;5053319;28;20020;-73
2021/09/28 01:03:34;;;;;;;3.63;1.17;;;14.30;1.00;;;;;;5053335;28;20025;-72
2021/09/28 01:06:00;;;;;;;2.22;0.77;;;14.30;1.00;;;;;;5052214;28;20033;-72
2021/09/28 01:08:26;;;;;;;3.65;0.80;;;14.20;1.00;;;;;;5053696;28;20056;-72
2021/09/28 01:10:53;;;;;;;1.85;0.70;;;14.20;1.00;;;;;;5052250;28;20078;-72
2021/09/28 01:13:19;;;;;;;3.55;0.50;;;14.20;1.00;;;;;;5054394;28;20476;-73
2021/09/28 01:15:59;;;;;;;2.03;1.00;;;14.20;1.00;;;;;;5055731;28;20036;-72
2021/09/28 01:18:31;;;;;;;3.28;1.05;;;14.10;1.00;;;;;;5055359;28;20035;-72
2021/09/28 01:20:57;;;;;;;2.70;0.70;;;14.10;1.00;;;;;;5053129;28;20036;-72
2021/09/28 01:23:23;;;;;;;2.83;0.60;;;14.10;1.00;;;;;;5052222;28;20377;-72
2021/09/28 01:25:49;;;;;;;3.65;0.60;;;14.20;1.00;;;;;;5052696;28;20028;-73
2021/09/28 01:28:14;;;;;;;2.97;0.73;;;14.00;99.90;;;;;;5052926;28;20032;-72
2021/09/28 01:30:40;;;;;;;1.98;0.50;;;14.00;1.00;;;;;;5052856;28;20025;-73
2021/09/28 01:33:07;;;;;;;3.67;0.75;;;14.00;1.00;;;;;;5066793;28;20017;-72
2021/09/28 01:35:34;;;;;;;1.42;0.45;;;14.00;1.00;;;;;;5068616;28;20068;-73
2021/09/28 01:38:00;;;;;;;2.28;0.52;;;14.00;1.00;;;;;;5062107;28;20021;-72
2021/09/28 01:40:26;;;;;;;2.97;0.70;;;14.00;1.00;;;;;;5062299;28;20059;-72
2021/09/28 01:42:51;;;;;;;1.17;0.50;;;14.10;1.00;;;;;;5055683;28;20029;-73
2021/09/28 01:45:17;;;;;;;0.68;0.65;;;14.10;1.00;;;;;;5054022;28;20116;-73
2021/09/28 01:47:42;;;;;;;3.72;0.73;;;14.00;99.90;;;;;;5052883;28;20033;-73
2021/09/28 01:50:08;;;;;;;1.85;0.60;;;14.10;1.00;;;;;;5052424;28;20025;-72
2021/09/28 01:52:36;;;;;;;1.50;0.50;;;14.00;1.00;;;;;;5052317;28;20017;-72
2021/09/28 01:55:03;;;;;;;1.67;0.68;;;14.00;1.00;;;;;;5052343;28;20099;-73
2021/09/28 01:57:29;;;;;;;1.33;0.52;;;14.00;1.00;;;;;;5052607;28;20043;-74
2021/09/28 01:59:54;;;;;;;1.92;0.65;;;14.00;99.90;;;;;;5052303;28;20017;-73
2021/09/28 02:02:20;;;;;;;4.28;0.60;;;14.00;99.90;;;;;;5052806;28;20079;-73
2021/09/28 02:04:45;;;;;;;1.10;0.60;;;13.90;99.90;;;;;;5051189;28;20025;-73
2021/09/28 02:07:11;;;;;;;2.53;0.75;;;13.90;99.90;;;;;;5052358;28;20036;-73
2021/09/28 02:09:36;;;;;;;2.90;0.85;;;13.90;99.90;;;;;;5050873;28;20029;-73
2021/09/28 02:12:02;;;;;;;4.60;0.95;;;13.90;99.90;;;;;;5052266;28;20021;-73
2021/09/28 02:14:28;;;;;;;3.75;0.63;;;14.00;1.00;;;;;;5052345;28;20028;-73
2021/09/28 02:16:55;;;;;;;4.65;1.02;;;14.00;1.00;;;;;;5050775;28;20021;-73
2021/09/28 02:19:20;;;;;;;4.18;0.57;;;14.10;99.90;;;;;;5052428;28;20369;-73
2021/09/28 02:21:46;;;;;;;4.03;0.70;;;14.00;99.90;;;;;;5052319;28;20036;-74
2021/09/28 02:24:12;;;;;;;1.95;0.63;;;14.00;99.90;;;;;;5051090;28;20048;-72
2021/09/28 02:26:38;;;;;;;2.70;0.80;;;14.00;99.90;;;;;;5052201;28;20028;-72
2021/09/28 02:29:05;;;;;;;6.55;1.08;;;14.00;99.90;;;;;;5052367;28;20104;-73
2021/09/28 02:31:31;;;;;;;2.35;0.70;;;14.00;1.00;;;;;;5052307;28;20025;-73
2021/09/28 02:33:56;;;;;;;0.70;0.60;;;14.00;99.90;;;;;;5052392;28;20040;-72
2021/09/28 02:36:22;;;;;;;3.55;0.65;;;14.00;99.90;;;;;;5053076;28;20033;-72
2021/09/28 02:38:48;;;;;;;2.60;0.63;;;14.00;99.90;;;;;;5052629;28;20025;-72
2021/09/28 02:41:13;;;;;;;2.25;0.77;;;14.00;99.90;;;;;;5051988;28;20028;-73
2021/09/28 02:43:39;;;;;;;4.25;0.60;;;14.00;99.90;;;;;;5052397;28;20449;-73
2021/09/28 02:46:05;;;;;;;4.88;0.88;;;14.00;99.90;;;;;;5050803;28;20374;-73
2021/09/28 02:48:31;;;;;;;3.67;1.13;;;14.00;99.90;;;;;;5050898;28;20113;-73
2021/09/28 02:50:57;;;;;;;2.80;0.90;;;14.00;99.90;;;;;;5051939;28;20098;-73
2021/09/28 02:53:22;;;;;;;2.25;0.80;;;14.00;99.90;;;;;;5051871;28;20067;-73
2021/09/28 02:55:48;;;;;;;2.33;0.60;;;14.00;99.90;;;;;;5051700;28;20033;-73
2021/09/28 02:58:14;;;;;;;1.58;0.70;;;14.10;99.90;;;;;;5050331;28;20036;-74
2021/09/28 03:00:39;;;;;;;3.63;0.98;;;14.00;24.60;;;;;;5051760;28;20056;-73
2021/09/28 03:03:05;;;;;;;1.60;0.65;;;14.00;99.90;;;;;;5051612;28;20029;-73
2021/09/28 03:05:30;;;;;;;1.50;0.68;;;14.00;99.90;;;;;;5050290;28;20025;-73
2021/09/28 03:07:56;;;;;;;3.33;0.70;;;14.00;99.90;;;;;;5074596;22;20021;-73
2021/09/28 03:10:22;;;;;;;3.25;0.70;;;14.00;99.90;;;;;;5051143;28;20041;-73
2021/09/28 03:12:47;;;;;;;2.83;0.60;;;14.00;99.90;;;;;;5051741;28;20021;-73
2021/09/28 03:15:13;;;;;;;2.53;0.85;;;13.90;99.90;;;;;;5052481;28;20052;-74
2021/09/28 03:17:39;;;;;;;4.25;0.60;;;13.90;99.90;;;;;;5055139;28;20485;-73
2021/09/28 03:20:05;;;;;;;2.15;0.68;;;13.80;99.90;;;;;;5055600;28;20054;-73
2021/09/28 03:22:31;;;;;;;3.95;1.02;;;13.80;99.90;;;;;;5058530;28;20039;-74
2021/09/28 03:24:56;;;;;;;4.75;0.90;;;13.80;99.90;;;;;;5061308;28;20467;-73
2021/09/28 03:27:22;;;;;;;3.60;0.70;;;13.70;99.90;;;;;;5058732;28;20107;-73
2021/09/28 03:29:48;;;;;;;2.50;1.00;;;13.70;99.90;;;;;;5058452;28;20116;-73
2021/09/28 03:32:13;;;;;;;2.90;1.02;;;13.70;99.90;;;;;;5055242;28;20025;-73
2021/09/28 03:34:39;;;;;;;3.25;0.98;;;13.70;1.00;;;;;;5059753;28;20025;-72
2021/09/28 03:37:04;;;;;;;2.35;0.60;;;13.60;1.00;;;;;;5074787;28;20033;-73
2021/09/28 03:39:32;;;;;;;2.60;1.08;;;13.60;1.00;;;;;;5074189;28;20017;-73
2021/09/28 03:41:57;;;;;;;3.65;1.25;;;13.60;1.00;;;;;;5060671;28;20017;-73
2021/09/28 03:44:23;;;;;;;3.72;0.80;;;13.60;1.00;;;;;;5056017;28;20051;-74
2021/09/28 03:46:49;;;;;;;3.60;1.10;;;13.50;1.00;;;;;;5055367;28;20055;-74
2021/09/28 03:49:14;;;;;;;2.42;0.75;;;13.60;1.00;;;;;;5054478;28;20480;-73
2021/09/28 03:51:40;;;;;;;2.10;0.80;;;13.60;1.00;;;;;;5054634;28;20083;-73
2021/09/28 03:54:05;;;;;;;6.45;2.80;;;13.60;1.00;;;;;;5054551;28;20071;-72
2021/09/28 03:56:31;;;;;;;3.45;0.88;;;13.60;1.00;;;;;;5054834;28;20404;-73
2021/09/28 03:58:56;;;;;;;2.20;1.08;;;13.50;1.00;;;;;;5054140;28;20025;-73
2021/09/28 04:01:22;;;;;;;3.90;1.65;;;13.50;1.00;;;;;;5054348;28;20036;-72
2021/09/28 04:03:47;;;;;;;4.60;1.60;;;13.50;1.00;;;;;;5054257;28;20029;-73
2021/09/28 04:06:13;;;;;;;3.22;0.90;;;13.50;1.00;;;;;;5054092;28;20017;-73
2021/09/28 04:08:39;;;;;;;4.70;1.02;;;13.50;1.00;;;;;;5052411;28;20079;-73
2021/09/28 04:11:04;;;;;;;1.63;0.68;;;13.40;1.00;;;;;;5054047;28;20024;-75
2021/09/28 04:13:30;;;;;;;2.25;0.95;;;13.40;1.00;;;;;;5053957;28;20256;-73
2021/09/28 04:15:56;;;;;;;3.85;0.93;;;13.40;1.00;;;;;;5054165;28;20108;-74
2021/09/28 04:18:22;;;;;;;4.82;1.70;;;13.30;1.00;;;;;;5053910;28;20067;-75
2021/09/28 04:20:49;;;;;;;3.50;0.88;;;13.20;1.00;;;;;;5056045;28;20427;-75
2021/09/28 04:23:15;;;;;;;3.40;1.10;;;13.20;1.00;;;;;;5052710;28;20029;-73
2021/09/28 04:25:42;;;;;;;2.42;0.88;;;13.10;1.00;;;;;;5053463;28;20110;-73
2021/09/28 04:28:08;;;;;;;3.67;1.33;;;13.00;1.00;;;;;;5053767;28;20029;-73
2021/09/28 04:30:34;;;;;;;3.50;1.00;;;13.10;1.00;;;;;;5053868;28;20028;-73
2021/09/28 04:33:00;;;;;;;6.72;1.50;;;13.00;1.00;;;;;;5054277;28;20033;-72
2021/09/28 04:35:26;;;;;;;4.50;1.50;;;13.00;1.00;;;;;;5053901;28;20029;-73
2021/09/28 04:37:51;;;;;;;3.05;1.40;;;13.00;1.00;;;;;;5053803;28;20037;-73
2021/09/28 04:40:17;;;;;;;13.73;2.47;;;12.90;1.00;;;;;;5053585;28;20021;-74
2021/09/28 04:42:43;;;;;;;3.35;1.40;;;12.90;1.00;;;;;;5053725;28;20506;-73
2021/09/28 04:45:09;;;;;;;4.65;1.30;;;12.90;1.00;;;;;;5053961;28;20061;-73
2021/09/28 04:47:35;;;;;;;5.05;1.50;;;12.90;1.00;;;;;;5053938;28;20021;-74
2021/09/28 04:50:02;;;;;;;4.72;1.50;;;12.80;1.00;;;;;;5053671;28;20528;-74
2021/09/28 04:52:27;;;;;;;7.88;2.10;;;12.80;1.00;;;;;;5052435;28;20028;-73
2021/09/28 04:54:53;;;;;;;2.88;1.70;;;12.70;1.00;;;;;;5053686;28;20025;-74
2021/09/28 04:57:21;;;;;;;6.88;2.65;;;12.70;1.00;;;;;;5052473;28;20032;-73
2021/09/28 04:59:47;;;;;;;3.05;1.83;;;12.70;1.00;;;;;;5052400;28;20036;-73
2021/09/28 05:02:12;;;;;;;6.32;2.40;;;12.60;1.00;;;;;;5053696;28;20115;-73
2021/09/28 05:04:38;;;;;;;7.57;2.05;;;12.60;1.00;;;;;;5053349;28;20060;-74
2021/09/28 05:07:04;;;;;;;7.20;2.25;;;12.60;1.00;;;;;;5053057;28;20029;-74
2021/09/28 05:09:30;;;;;;;5.63;2.17;;;12.60;1.00;;;;;;5051666;28;20029;-73
2021/09/28 05:11:56;;;;;;;3.10;1.95;;;12.50;1.00;;;;;;5054879;28;20070;-72
2021/09/28 05:14:22;;;;;;;5.65;2.22;;;12.50;1.00;;;;;;5053753;28;20029;-74
2021/09/28 05:16:47;;;;;;;4.55;2.47;;;12.50;1.00;;;;;;5053563;28;20091;-73
2021/09/28 05:19:13;;;;;;;5.65;3.17;;;12.40;1.00;;;;;;5052879;28;20027;-73
2021/09/28 05:21:39;;;;;;;5.15;2.63;;;12.50;1.00;;;;;;5053186;28;20029;-74
2021/09/28 05:24:06;;;;;;;10.63;3.08;;;12.60;1.00;;;;;;5051770;28;20079;-74
2021/09/28 05:26:32;;;;;;;6.10;3.13;;;12.50;1.00;;;;;;5052619;28;20029;-73
2021/09/28 05:28:57;;;;;;;4.85;3.88;;;12.50;1.00;;;;;;5052424;28;20017;-74
2021/09/28 05:31:23;;;;;;;6.45;3.08;;;12.50;1.00;;;;;;5051536;28;20025;-74
2021/09/28 05:33:49;;;;;;;9.23;3.38;;;12.50;1.00;;;;;;5052576;28;20027;-74
2021/09/28 05:36:14;;;;;;;5.90;2.53;;;12.50;1.00;;;;;;5051810;28;20025;-74
2021/09/28 05:38:40;;;;;;;4.00;3.10;;;12.50;1.00;;;;;;5052893;28;20021;-73
2021/09/28 05:41:06;;;;;;;5.72;3.00;;;12.50;1.00;;;;;;5052745;28;20092;-74
2021/09/28 05:43:32;;;;;;;4.07;2.65;;;12.50;99.90;;;;;;5052782;28;20021;-74
2021/09/28 05:45:58;;;;;;;10.02;3.30;;;12.50;99.90;;;;;;5053869;28;20033;-73
2021/09/28 05:48:24;;;;;;;4.95;3.08;;;12.60;99.90;;;;;;5053194;28;20074;-73
2021/09/28 05:50:49;;;;;;;9.35;2.60;;;12.60;99.90;;;;;;5053033;28;20033;-72
2021/09/28 05:53:15;;;;;;;4.50;2.35;;;12.70;99.90;;;;;;5052825;28;20453;-73
2021/09/28 05:55:41;;;;;;;5.70;2.60;;;12.90;99.90;;;;;;5052945;28;20435;-73
2021/09/28 05:58:07;;;;;;;9.68;2.97;;;12.90;99.90;;;;;;5052454;28;20028;-73
2021/09/28 06:00:32;;;;;;;11.52;2.78;;;12.90;99.90;;;;;;5052548;28;20441;-75
2021/09/28 06:02:58;;;;;;;7.40;2.60;;;13.00;99.90;;;;;;5052140;28;20081;-73
2021/09/28 06:05:24;;;;;;;8.77;2.45;;;13.00;99.90;;;;;;5052187;28;20033;-73
2021/09/28 06:07:50;;;;;;;5.47;2.72;;;13.00;99.90;;;;;;5052652;28;20019;-74
2021/09/28 06:10:15;;;;;;;5.53;2.10;;;13.00;99.90;;;;;;5052090;28;20055;-74
2021/09/28 06:12:41;;;;;;;4.88;2.60;;;13.10;99.90;;;;;;5052492;28;20029;-75
2021/09/28 06:15:07;;;;;;;6.20;2.80;;;13.20;99.90;;;;;;5056893;28;20045;-73
2021/09/28 06:17:33;;;;;;;6.18;2.45;;;13.40;99.90;;;;;;5066369;28;20029;-73
2021/09/28 06:19:59;;;;;;;5.65;2.92;;;13.60;99.90;;;;;;5066378;28;20049;-73
2021/09/28 06:22:25;;;;;;;4.90;2.65;;;13.70;99.90;;;;;;5055570;28;20029;-74
2021/09/28 06:24:55;;;;;;;9.57;3.28;;;13.80;99.90;;;;;;5051503;28;20029;-73
2021/09/28 06:27:21;;;;;;;10.30;2.88;;;13.70;99.90;;;;;;5060836;28;20495;-73
2021/09/28 06:29:47;;;;;;;10.07;3.70;;;13.50;99.90;;;;;;5060131;28;20464;-73
2021/09/28 06:32:13;;;;;;;6.70;2.60;;;13.50;99.90;;;;;;5059223;28;20029;-73
2021/09/28 06:34:39;;;;;;;5.15;2.85;;;13.70;99.90;;;;;;5062502;28;20022;-72
2021/09/28 06:37:04;;;;;;;10.50;3.33;;;13.90;99.90;;;;;;5061517;28;20032;-73
2021/09/28 06:39:30;;;;;;;4.53;3.05;;;14.10;99.90;;;;;;5063786;28;20038;-73
2021/09/28 06:41:55;;;;;;;6.32;3.00;;;14.00;99.90;;;;;;5060861;28;20021;-72
2021/09/28 06:44:21;;;;;;;5.22;2.58;;;13.90;99.90;;;;;;5056995;28;20060;-73
2021/09/28 06:46:46;;;;;;;9.43;4.45;;;14.00;99.90;;;;;;5058414;28;20108;-72
2021/09/28 06:49:12;;;;;;;5.78;3.17;;;13.90;99.90;;;;;;5058663;28;20025;-73
2021/09/28 06:51:38;;;;;;;9.18;3.63;;;13.80;99.90;;;;;;5062721;28;20040;-73
2021/09/28 06:54:04;;;;;;;9.40;3.53;;;13.90;99.90;;;;;;5063018;28;20029;-73
2021/09/28 06:56:29;;;;;;;4.75;3.08;;;13.90;99.90;;;;;;5063322;28;20033;-73
2021/09/28 06:58:55;;;;;;;8.88;3.65;;;13.90;99.90;;;;;;5061418;28;20468;-74
2021/09/28 07:01:21;;;;;;;8.48;3.63;;;14.00;99.90;;;;;;5062588;28;20060;-73
2021/09/28 07:03:46;;;;;;;5.70;3.47;;;14.00;99.90;;;;;;5062125;28;20056;-73
2021/09/28 07:06:12;;;;;;;7.85;3.28;;;14.10;99.90;;;;;;5058218;28;20377;-74
2021/09/28 07:08:37;;;;;;;8.98;4.03;;;14.40;99.90;;;;;;5055630;28;20040;-72
2021/09/28 07:11:03;;;;;;;10.85;3.45;;;14.50;99.90;;;;;;5054771;28;20021;-73
2021/09/28 07:13:29;;;;;;;13.43;3.92;;;14.40;99.90;;;;;;5055753;28;20384;-73
2021/09/28 07:15:54;;;;;;;8.20;3.38;;;14.60;99.90;;;;;;5055592;28;20100;-73
2021/09/28 07:18:20;;;;;;;12.48;3.80;;;14.90;99.90;;;;;;5055652;28;20025;-73
2021/09/28 07:20:45;;;;;;;10.50;4.78;;;14.80;99.90;;;;;;5055496;28;20532;-74
2021/09/28 07:23:11;;;;;;;8.07;3.42;;;14.90;99.90;;;;;;5058654;28;20036;-74
2021/09/28 07:25:37;;;;;;;8.70;3.80;;;15.10;99.90;;;;;;5056774;28;20033;-73
2021/09/28 07:28:03;;;;;;;9.45;3.80;;;15.10;99.90;;;;;;5059062;28;20509;-74
2021/09/28 07:30:31;;;;;;;6.85;4.22;;;15.00;99.90;;;;;;5056053;28;20024;-73
2021/09/28 07:32:57;;;;;;;5.22;3.75;;;14.90;99.90;;;;;;5056934;28;20404;-73
2021/09/28 07:35:23;;;;;;;5.32;3.15;;;14.90;99.90;;;;;;5057229;28;20032;-74
2021/09/28 07:37:49;;;;;;;7.53;3.85;;;15.10;99.90;;;;;;5056643;28;20029;-74
2021/09/28 07:40:16;;;;;;;7.28;4.20;;;14.90;99.90;;;;;;5055990;28;20422;-74
2021/09/28 07:42:43;;;;;;;10.93;4.45;;;14.80;99.90;;;;;;5056970;28;20143;-75
2021/09/28 07:45:09;;;;;;;7.90;4.85;;;14.80;99.90;;;;;;5056208;28;20341;-74
2021/09/28 07:47:35;;;;;;;7.03;4.13;;;14.70;99.90;;;;;;5055891;28;20036;-74
2021/09/28 07:50:00;;;;;;;10.20;4.50;;;14.80;99.90;;;;;;5055533;28;20037;-74
2021/09/28 07:52:27;;;;;;;9.48;4.20;;;14.80;99.90;;;;;;5055418;28;20393;-73
2021/09/28 07:54:52;;;;;;;7.82;3.85;;;15.10;99.90;;;;;;5055708;28;20029;-75
2021/09/28 07:57:18;;;;;;;7.00;4.68;;;15.30;99.90;;;;;;5055753;28;20109;-74
2021/09/28 07:59:43;;;;;;;5.80;3.53;;;15.20;99.90;;;;;;5055308;28;20032;-75
2021/09/28 08:02:09;;;;;;;6.07;3.33;;;15.40;99.90;;;;;;5053935;28;20031;-74
2021/09/28 08:04:36;;;;;;;6.25;3.67;;;15.20;99.90;;;;;;5055930;28;20415;-74
2021/09/28 08:07:01;;;;;;;4.55;3.35;;;15.50;99.90;;;;;;5053937;28;20445;-75
2021/09/28 08:09:27;;;;;;;7.93;4.15;;;15.40;99.90;;;;;;5055181;28;20025;-75
2021/09/28 08:11:53;;;;;;;5.35;3.92;;;15.30;99.90;;;;;;5055205;28;20435;-75
2021/09/28 08:14:19;;;;;;;6.35;3.05;;;15.10;99.90;;;;;;5055111;28;20017;-74
2021/09/28 08:16:44;;;;;;;8.15;3.92;;;15.00;99.90;;;;;;5054954;28;20029;-74
2021/09/28 08:19:10;;;;;;;6.82;3.28;;;15.00;99.90;;;;;;5055424;28;20500;-74
2021/09/28 08:21:36;;;;;;;7.95;4.57;;;15.50;99.90;;;;;;5053215;28;20039;-75
2021/09/28 08:24:01;;;;;;;5.38;3.60;;;15.70;99.90;;;;;;5052924;28;20503;-74
2021/09/28 08:29:09;;;;;;;8.77;3.88;;;15.80;99.90;;;;;;5054229;28;20546;-74
2021/09/28 08:31:37;;;;;;;11.75;4.32;;;15.80;99.90;;;;;;5055075;28;20021;-76
2021/09/28 08:34:03;;;;;;;7.28;3.92;;;15.70;99.90;;;;;;5055088;28;20079;-75
2021/09/28 08:36:30;;;;;;;8.10;3.67;;;15.60;99.90;;;;;;5055807;28;20032;-74
2021/09/28 08:38:56;;;;;;;6.50;4.03;;;15.70;99.90;;;;;;5055317;28;20025;-75
2021/09/28 08:41:22;;;;;;;7.07;3.88;;;15.70;99.90;;;;;;5054817;28;20056;-74
2021/09/28 08:43:51;;;;;;;5.43;3.20;;;15.90;99.90;;;;;;5054817;28;20041;-74
2021/09/28 08:46:21;;;;;;;5.57;3.20;;;16.20;99.90;;;;;;5054320;28;20032;-74
2021/09/28 08:48:48;;;;;;;8.32;4.30;;;16.40;99.90;;;;;;5052687;28;20027;-73
2021/09/28 08:51:14;;;;;;;7.35;3.10;;;16.70;99.90;;;;;;5054014;28;20500;-75
2021/09/28 08:53:40;;;;;;;4.75;2.65;;;16.80;99.90;;;;;;5053178;28;20366;-75
2021/09/28 08:56:09;;;;;;;7.28;2.90;;;16.90;99.90;;;;;;5054078;28;20581;-74
2021/09/28 08:58:55;;;;;;;7.45;3.17;;;16.70;99.90;;;;;;5053915;28;20057;-74
2021/09/28 09:01:21;;;;;;;8.40;3.78;;;16.70;99.90;;;;;;5053698;28;20032;-74
2021/09/28 09:03:47;;;;;;;7.53;2.92;;;16.70;99.90;;;;;;5053637;28;20036;-74
2021/09/28 09:06:14;;;;;;;5.57;3.35;;;16.70;99.90;;;;;;5053759;28;20480;-73
2021/09/28 09:08:42;;;;;;;6.35;2.70;;;16.70;99.90;;;;;;5073840;22;20844;-74
2021/09/28 09:11:12;;;;;;;6.47;2.35;;;16.70;99.90;;;;;;5053215;28;20025;-75
2021/09/28 09:13:47;;;;;;;5.33;2.63;;;16.90;99.90;;;;;;5052118;28;20025;-74
2021/09/28 09:16:15;;;;;;;5.03;2.33;;;17.00;99.90;;;;;;5052919;28;20035;-74
2021/09/28 09:18:43;;;;;;;3.97;2.22;;;17.40;99.90;;;;;;5053777;28;20087;-73
2021/09/28 09:21:10;;;;;;;4.57;3.22;;;17.40;99.90;;;;;;5053674;28;20056;-73
2021/09/28 09:23:40;;;;;;;6.72;2.50;;;17.70;99.90;;;;;;5053231;28;20477;-73
2021/09/28 09:26:10;;;;;;;6.90;2.60;;;17.40;99.90;;;;;;5053678;28;20036;-76
2021/09/28 09:28:45;;;;;;;5.55;3.08;;;17.70;99.90;;;;;;5051915;28;20465;-74
2021/09/28 09:31:46;;;;;;;7.80;2.72;;;17.60;99.90;;;;;;5054350;28;20017;-74
2021/09/28 09:34:21;;;;;;;4.28;2.72;;;17.70;99.90;;;;;;5011187;28;20569;-76
2021/09/28 09:36:54;;;;;;;4.85;3.50;;;17.30;99.90;;;;;;5046801;28;20048;-73
2021/09/28 09:39:21;;;;;;;6.00;3.53;;;17.00;99.90;;;;;;5052953;28;20109;-74
2021/09/28 09:41:47;;;;;;;7.20;2.50;;;17.00;99.90;;;;;;5054266;28;20500;-73
2021/09/28 09:44:16;;;;;;;3.58;2.85;;;17.00;99.90;;;;;;5064914;28;20037;-74
2021/09/28 09:46:46;;;;;;;7.68;2.40;;;17.10;99.90;;;;;;5067505;28;20036;-74
2021/09/28 09:49:13;;;;;;;11.30;2.55;;;17.20;99.90;;;;;;5064622;28;20028;-74
2021/09/28 09:51:41;;;;;;;4.95;2.30;;;17.20;99.90;;;;;;5058689;28;20017;-75
2021/09/28 09:54:07;;;;;;;6.20;2.22;;;17.30;99.90;;;;;;5059420;28;20024;-74
2021/09/28 09:56:52;;;;;;;4.78;2.17;;;16.90;99.90;;;;;;5056989;28;20088;-73
2021/09/28 09:59:19;;;;;;;5.10;2.63;;;17.10;99.90;;;;;;5058689;28;20033;-74
2021/09/28 10:01:45;;;;;;;4.88;2.60;;;17.10;99.90;;;;;;5053356;28;20108;-74
2021/09/28 10:04:17;;;;;;;3.35;2.00;;;17.60;99.90;;;;;;5058369;28;20053;-74
2021/09/28 10:06:43;;;;;;;5.22;3.03;;;17.80;99.90;;;;;;5053110;28;20081;-75
2021/09/28 10:09:38;;;;;;;5.38;2.10;;;17.60;99.90;;;;;;5053965;28;20128;-73
2021/09/28 10:12:09;;;;;;;2.70;1.70;;;17.80;99.90;;;;;;5052638;28;20033;-74
2021/09/28 10:14:41;;;;;;;2.83;1.65;;;18.00;99.90;;;;;;5053125;28;20431;-74
2021/09/28 10:17:12;;;;;;;4.57;1.95;;;18.00;99.90;;;;;;5056470;28;20116;-74
2021/09/28 10:19:40;;;;;;;6.05;1.67;;;18.00;99.90;;;;;;5053267;28;20024;-74
2021/09/28 10:22:07;;;;;;;2.90;2.13;;;17.90;99.90;;;;;;5054081;28;20453;-74
2021/09/28 10:24:34;;;;;;;7.55;1.85;;;17.50;99.90;;;;;;5078655;28;20016;-73
2021/09/28 10:27:00;;;;;;;4.32;1.80;;;17.90;99.90;;;;;;5081440;28;20016;-73
2021/09/28 10:29:42;;;;;;;5.75;2.15;;;18.30;99.90;;;;;;5080085;28;20067;-73
2021/09/28 10:32:27;;;;;;;2.50;1.73;;;18.10;99.90;;;;;;5056990;28;20025;-74
2021/09/28 10:35:16;;;;;;;3.58;1.65;;;18.40;99.90;;;;;;5056830;28;20028;-73
2021/09/28 10:37:42;;;;;;;3.25;1.90;;;18.20;99.90;;;;;;5063564;28;20025;-74
2021/09/28 10:40:08;;;;;;;7.43;2.78;;;18.00;99.90;;;;;;5062379;28;20063;-73
2021/09/28 10:42:50;;;;;;;3.90;1.98;;;17.90;99.90;;;;;;5060675;28;20029;-73
2021/09/28 10:45:17;;;;;;;4.85;3.28;;;18.00;99.90;;;;;;5059576;28;20033;-73
2021/09/28 10:47:48;;;;;;;4.55;2.08;;;17.80;99.90;;;;;;5058995;28;20112;-74
2021/09/28 10:50:38;;;;;;;5.22;3.28;;;17.70;99.90;;;;;;5062440;28;20020;-72
2021/09/28 10:53:18;;;;;;;2.85;1.50;;;17.50;99.90;;;;;;5062954;28;20408;-74
2021/09/28 10:55:56;;;;;;;2.95;1.98;;;17.80;99.90;;;;;;5064481;28;20025;-73
2021/09/28 10:58:25;;;;;;;2.78;1.90;;;17.80;99.90;;;;;;5057614;28;20089;-73
2021/09/28 11:00:53;;;;;;;5.13;2.10;;;17.90;99.90;;;;;;5057403;28;20056;-73
2021/09/28 11:03:41;;;;;;;7.50;2.50;;;18.30;99.90;;;;;;5059512;28;20389;-73
2021/09/28 11:06:08;;;;;;;4.28;2.40;;;18.20;99.90;;;;;;5060062;28;20044;-75
2021/09/28 11:08:36;;;;;;;5.70;2.45;;;18.10;99.90;;;;;;5066666;28;20068;-74
2021/09/28 11:11:06;;;;;;;2.83;2.25;;;18.60;99.90;;;;;;5065075;28;20417;-75
2021/09/28 11:13:34;;;;;;;4.60;2.22;;;18.80;99.90;;;;;;5056831;28;20028;-73
2021/09/28 11:16:01;;;;;;;6.22;2.33;;;18.70;99.90;;;;;;5057737;28;20029;-75
2021/09/28 11:18:27;;;;;;;5.93;2.72;;;18.60;99.90;;;;;;5057899;28;20025;-74
2021/09/28 11:20:53;;;;;;;4.95;2.50;;;19.00;99.90;;;;;;5056790;28;20021;-75
2021/09/28 11:23:19;;;;;;;4.63;2.15;;;18.90;99.90;;;;;;5055543;28;20047;-75
2021/09/28 11:25:51;;;;;;;4.22;2.42;;;18.80;99.90;;;;;;5056650;28;20036;-74
2021/09/28 11:28:18;;;;;;;7.10;3.78;;;19.30;99.90;;;;;;5056700;28;20029;-73
2021/09/28 11:30:52;;;;;;;6.70;3.50;;;19.50;99.90;;;;;;5056487;28;20021;-73
2021/09/28 11:33:19;;;;;;;6.03;3.55;;;19.10;99.90;;;;;;5056241;28;20028;-74
2021/09/28 11:35:59;;;;;;;5.95;3.00;;;18.80;99.90;;;;;;5053585;28;20495;-74
2021/09/28 11:38:31;;;;;;;6.68;3.65;;;18.80;99.90;;;;;;5057216;28;20047;-74
2021/09/28 11:40:59;;;;;;;7.00;3.17;;;18.60;99.90;;;;;;5064700;28;20029;-75
2021/09/28 11:43:28;;;;;;;7.85;3.58;;;18.30;99.90;;;;;;5056844;28;20032;-74
2021/09/28 11:46:05;;;;;;;6.60;3.40;;;17.80;99.90;;;;;;5056079;28;20029;-75
2021/09/28 11:48:36;;;;;;;6.13;3.50;;;18.00;99.90;;;;;;5056703;28;20040;-74
2021/09/28 11:51:16;;;;;;;7.97;3.50;;;18.00;99.90;;;;;;5057955;28;20597;-74
2021/09/28 11:53:44;;;;;;;5.90;3.55;;;18.10;99.90;;;;;;5056276;28;20377;-74
2021/09/28 11:56:12;;;;;;;4.68;3.42;;;18.10;99.90;;;;;;5056402;28;20196;-73
2021/09/28 11:58:39;;;;;;;8.02;3.78;;;17.80;99.90;;;;;;5054806;28;20025;-74
2021/09/28 12:01:12;;;;;;;3.60;3.15;;;18.30;99.90;;;;;;5054951;28;20029;-74
2021/09/28 12:07:04;;;;;;;11.05;4.20;;;18.70;99.90;;;;;;5054808;28;20032;-74
2021/09/28 12:09:39;;;;;;;7.13;3.50;;;18.70;99.90;;;;;;5054565;28;20029;-74
2021/09/28 12:12:09;;;;;;;5.60;3.10;;;18.70;99.90;;;;;;5053108;28;20025;-74
2021/09/28 12:14:38;;;;;;;4.43;3.33;;;18.50;99.90;;;;;;5054595;28;20060;-74
2021/09/28 12:17:21;;;;;;;6.90;3.47;;;18.70;99.90;;;;;;5054467;28;20263;-73
2021/09/28 12:19:55;;;;;;;4.15;3.17;;;18.50;99.90;;;;;;5054517;28;20112;-74
2021/09/28 12:22:44;;;;;;;4.78;2.92;;;18.40;99.90;;;;;;5058295;28;20040;-74
2021/09/28 12:25:14;;;;;;;5.38;3.00;;;18.10;99.90;;;;;;5066832;28;20092;-74
2021/09/28 12:28:04;;;;;;;5.95;3.85;;;18.30;99.90;;;;;;5066521;28;20025;-74
2021/09/28 12:30:35;;;;;;;4.78;3.47;;;18.30;99.90;;;;;;5062040;28;20021;-73
2021/09/28 12:33:03;;;;;;;4.53;3.40;;;18.50;99.90;;;;;;5058963;28;20032;-74
2021/09/28 12:35:36;;;;;;;4.65;3.30;;;19.00;99.90;;;;;;5054735;28;20013;-74
2021/09/28 12:38:09;;;;;;;5.28;3.05;;;18.90;99.90;;;;;;5054063;28;20014;-74
2021/09/28 12:40:42;;;;;;;5.53;3.42;;;18.90;99.90;;;;;;5053922;28;20025;-74
2021/09/28 12:43:16;;;;;;;3.75;2.60;;;18.90;99.90;;;;;;5054242;28;20045;-75
2021/09/28 12:45:43;;;;;;;2.60;2.40;;;19.30;99.90;;;;;;5054187;28;20029;-73
2021/09/28 12:48:09;;;;;;;4.30;3.00;;;19.60;99.60;;;;;;5054013;28;20021;-74
2021/09/28 12:50:36;;;;;;;4.63;2.60;;;19.30;99.90;;;;;;5052293;28;20082;-74
2021/09/28 12:53:05;;;;;;;3.53;2.63;;;19.30;99.90;;;;;;5053750;28;20562;-74
2021/09/28 12:55:38;;;;;;;6.18;3.10;;;19.40;99.60;;;;;;5057130;28;20108;-76
2021/09/28 12:58:11;;;;;;;4.55;2.40;;;19.30;99.50;;;;;;5057621;28;20025;-74